Time;durP1;ratioP1;P1;durP2;ratioP2;P2;SDS_P1;SDS_P2;PMS_P1;PMS_P2;Temp;Humidity;BMP_temperature;BMP_pressure;BME280_temperature;BME280_humidity;BME280_pressure;Samples;Min_cycle;Max_cycle;Signal;HPM_P1;HPM_P2
2021/08/24 00:00:38;;;;;;;3.13;0.70;;;;;;;15.94;89.09;101943.72;5074538;28;20437;-73
2021/08/24 00:03:05;;;;;;;1.90;0.97;;;;;;;15.98;89.15;101952.09;5074249;28;20934;-74
2021/08/24 00:05:34;;;;;;;3.80;1.23;;;;;;;15.98;90.09;101958.41;5073551;28;20472;-74
2021/08/24 00:08:01;;;;;;;1.47;0.83;;;;;;;15.95;90.12;101960.94;5074095;28;20992;-74
2021/08/24 00:10:31;;;;;;;2.60;0.60;;;;;;;15.88;89.55;101955.84;5074296;28;20488;-74
2021/08/24 00:12:58;;;;;;;1.57;0.83;;;;;;;15.82;90.82;101957.88;5074357;28;20445;-73
2021/08/24 00:15:26;;;;;;;1.00;0.50;;;;;;;15.81;89.80;101969.13;5073300;28;20449;-74
2021/08/24 00:17:53;;;;;;;1.47;0.63;;;;;;;15.83;90.35;101964.16;5074177;28;20473;-74
2021/08/24 00:20:20;;;;;;;2.00;0.50;;;;;;;15.81;90.40;101961.72;5073295;28;20491;-74
2021/08/24 00:22:46;;;;;;;1.07;0.53;;;;;;;15.78;90.95;101958.78;5074135;28;20442;-73
2021/08/24 00:25:15;;;;;;;1.80;0.60;;;;;;;15.69;90.81;101960.59;5073196;28;20457;-73
2021/08/24 00:27:41;;;;;;;1.00;0.77;;;;;;;15.63;91.27;101968.88;5073936;28;20454;-74
2021/08/24 00:30:10;;;;;;;0.60;0.40;;;;;;;15.62;91.70;101966.41;5073910;28;20481;-73
2021/08/24 00:32:37;;;;;;;1.37;0.57;;;;;;;15.53;90.46;101965.47;5073988;28;20444;-73
2021/08/24 00:35:05;;;;;;;2.20;1.00;;;;;;;15.52;89.98;101966.59;5072958;28;20457;-73
2021/08/24 00:37:31;;;;;;;0.50;0.40;;;;;;;15.31;90.27;101977.06;5073787;28;20464;-74
2021/08/24 00:39:58;;;;;;;5.40;0.70;;;;;;;15.31;89.98;101977.88;5073857;28;20852;-74
2021/08/24 00:42:24;;;;;;;1.00;0.70;;;;;;;15.24;89.58;101977.44;5073469;28;20930;-74
2021/08/24 00:44:51;;;;;;;0.80;0.50;;;;;;;15.19;91.52;101972.09;5072560;28;20500;-73
2021/08/24 00:47:22;;;;;;;2.00;0.77;;;;;;;15.19;92.56;101974.00;5073626;28;20499;-72
2021/08/24 00:49:50;;;;;;;2.53;0.60;;;;;;;15.06;93.06;101970.13;5073610;28;20481;-72
2021/08/24 00:52:21;;;;;;;0.70;0.50;;;;;;;15.07;93.50;101979.91;5073299;28;20437;-72
2021/08/24 00:54:48;;;;;;;1.23;0.70;;;;;;;15.00;94.46;101982.19;5072522;28;20465;-73
2021/08/24 00:57:17;;;;;;;0.60;0.50;;;;;;;14.77;94.59;101979.25;5073362;28;20449;-72
2021/08/24 00:59:44;;;;;;;0.60;0.50;;;;;;;14.87;95.12;101983.75;5073486;28;20820;-73
2021/08/24 01:02:11;;;;;;;0.93;0.60;;;;;;;14.89;95.10;101985.09;5073493;28;20445;-73
2021/08/24 01:04:39;;;;;;;0.90;0.60;;;;;;;14.80;95.13;101984.13;5072817;28;20461;-73
2021/08/24 01:07:16;;;;;;;1.47;0.77;;;;;;;14.84;95.24;101984.34;5073185;28;20441;-73
2021/08/24 01:09:51;;;;;;;6.80;0.90;;;;;;;14.79;96.04;101985.25;5073403;28;20433;-73
2021/08/24 01:12:33;;;;;;;1.63;0.83;;;;;;;14.68;95.64;101988.41;5073371;28;20425;-72
2021/08/24 01:15:10;;;;;;;1.83;1.03;;;;;;;14.54;95.69;101994.56;5072452;28;20469;-73
2021/08/24 01:17:42;;;;;;;1.17;0.73;;;;;;;14.58;97.09;101992.09;5073223;28;20421;-72
2021/08/24 01:20:30;;;;;;;0.70;0.60;;;;;;;14.58;97.36;101994.81;5073316;28;20428;-72
2021/08/24 01:23:35;;;;;;;1.33;0.90;;;;;;;14.57;97.47;101996.72;5072933;28;20922;-73
2021/08/24 01:26:08;;;;;;;0.87;0.67;;;;;;;14.61;96.95;101994.22;5010093;28;20435;-73
2021/08/24 01:28:41;;;;;;;0.87;0.50;;;;;;;14.50;96.98;102001.72;5063992;28;20958;-73
2021/08/24 01:31:34;;;;;;;1.40;0.73;;;;;;;14.52;97.19;102002.25;5079028;28;20480;-74
2021/08/24 01:34:14;;;;;;;3.13;1.03;;;;;;;14.46;97.39;101995.19;5060586;28;20477;-72
2021/08/24 01:36:47;;;;;;;2.50;1.20;;;;;;;14.46;97.11;102005.28;5072522;28;20432;-73
2021/08/24 01:39:19;;;;;;;1.33;1.10;;;;;;;14.49;97.73;102002.03;5072945;28;20792;-74
2021/08/24 01:41:59;;;;;;;0.70;0.60;;;;;;;14.33;96.15;101999.44;5073140;28;20444;-72
2021/08/24 01:44:32;;;;;;;1.00;0.73;;;;;;;14.30;96.56;102002.78;5072738;28;20512;-72
2021/08/24 01:47:02;;;;;;;1.37;0.70;;;;;;;14.20;96.18;102004.78;5071803;28;20422;-72
2021/08/24 01:49:34;;;;;;;1.83;0.90;;;;;;;14.23;96.70;102002.28;5072753;28;20437;-73
2021/08/24 01:52:07;;;;;;;1.80;0.60;;;;;;;14.20;97.93;102005.59;5072949;28;20461;-73
2021/08/24 01:54:39;;;;;;;2.83;0.87;;;;;;;14.21;98.54;101999.06;5072825;28;20461;-72
2021/08/24 01:57:08;;;;;;;1.10;0.53;;;;;;;14.21;98.65;102004.50;5071993;28;20421;-72
2021/08/24 01:59:40;;;;;;;1.27;0.90;;;;;;;14.18;99.29;102001.56;5072567;28;20942;-73
2021/08/24 02:02:11;;;;;;;2.10;0.70;;;;;;;14.13;99.39;102005.97;5072861;28;20429;-72
2021/08/24 02:04:46;;;;;;;0.90;0.50;;;;;;;14.10;99.70;102003.00;5072628;28;20990;-72
2021/08/24 02:07:16;;;;;;;1.80;1.00;;;;;;;13.98;99.79;101999.84;5071985;28;20429;-72
2021/08/24 02:09:46;;;;;;;2.90;0.80;;;;;;;13.96;100.00;102000.16;5072799;28;20448;-73
2021/08/24 02:12:15;;;;;;;1.17;0.97;;;;;;;14.02;100.00;101995.44;5072730;28;20430;-72
2021/08/24 02:14:43;;;;;;;0.70;0.50;;;;;;;14.03;100.00;102006.09;5072416;28;20460;-72
2021/08/24 02:17:14;;;;;;;2.17;0.80;;;;;;;14.04;100.00;102006.88;5071876;28;20445;-72
2021/08/24 02:19:44;;;;;;;1.17;1.07;;;;;;;14.01;99.58;102010.19;5072703;28;20425;-73
2021/08/24 02:22:16;;;;;;;0.50;0.50;;;;;;;13.98;99.13;102017.00;5072703;28;20417;-72
2021/08/24 02:24:48;;;;;;;1.43;0.80;;;;;;;13.92;98.82;102015.44;5072603;28;20469;-72
2021/08/24 02:27:20;;;;;;;1.43;0.83;;;;;;;13.91;100.00;102021.19;5071456;28;20810;-73
2021/08/24 02:29:47;;;;;;;1.13;0.50;;;;;;;13.87;100.00;102021.75;5072516;28;20433;-72
2021/08/24 02:32:19;;;;;;;1.40;0.70;;;;;;;13.84;100.00;102016.06;5072519;28;20480;-72
2021/08/24 02:34:52;;;;;;;0.70;0.60;;;;;;;13.84;100.00;102022.31;5072531;28;20464;-72
2021/08/24 02:37:26;;;;;;;2.20;0.90;;;;;;;13.84;100.00;102019.59;5071756;28;20471;-72
2021/08/24 02:40:00;;;;;;;1.00;0.83;;;;;;;13.84;100.00;102022.31;5072463;28;20436;-72
2021/08/24 02:42:33;;;;;;;1.17;0.50;;;;;;;13.79;100.00;102024.28;5073221;28;20429;-72
2021/08/24 02:45:05;;;;;;;1.20;1.03;;;;;;;13.76;100.00;102027.59;5075611;28;20488;-72
2021/08/24 02:47:33;;;;;;;1.80;0.83;;;;;;;13.75;100.00;102031.41;5075197;28;20421;-72
2021/08/24 02:50:01;;;;;;;1.07;0.77;;;;;;;13.74;100.00;102027.06;5075803;28;20815;-72
2021/08/24 02:52:29;;;;;;;0.90;0.63;;;;;;;13.75;100.00;102028.69;5075555;28;20961;-73
2021/08/24 02:54:56;;;;;;;1.67;0.67;;;;;;;13.72;100.00;102030.06;5074622;28;20468;-72
2021/08/24 02:57:22;;;;;;;1.37;0.87;;;;;;;13.73;100.00;102031.72;5074979;28;20437;-72
2021/08/24 02:59:48;;;;;;;1.13;0.60;;;;;;;13.76;100.00;102030.31;5075486;28;20440;-71
2021/08/24 03:02:15;;;;;;;1.37;1.07;;;;;;;13.71;100.00;102019.47;5075724;28;20796;-72
2021/08/24 03:04:42;;;;;;;0.90;0.47;;;;;;;13.70;100.00;102023.28;5075724;28;20822;-72
2021/08/24 03:07:13;;;;;;;0.93;0.60;;;;;;;13.67;100.00;102021.94;5074801;28;20445;-72
2021/08/24 03:09:42;;;;;;;1.37;0.60;;;;;;;13.57;100.00;102024.75;5075751;28;20429;-72
2021/08/24 03:12:20;;;;;;;1.40;0.93;;;;;;;13.57;100.00;102022.03;5075497;28;20531;-72
2021/08/24 03:14:52;;;;;;;2.90;0.87;;;;;;;13.54;100.00;102022.59;5075466;28;20468;-72
2021/08/24 03:17:25;;;;;;;2.30;1.20;;;;;;;13.54;100.00;102028.03;5074692;28;20437;-72
2021/08/24 03:19:55;;;;;;;0.50;0.50;;;;;;;13.56;100.00;102026.69;5075478;28;20433;-72
2021/08/24 03:22:22;;;;;;;0.80;0.50;;;;;;;13.55;100.00;102025.06;5075104;28;20841;-72
2021/08/24 03:24:50;;;;;;;1.50;0.77;;;;;;;13.59;100.00;102017.94;5077153;28;20982;-72
2021/08/24 03:27:17;;;;;;;1.30;0.80;;;;;;;13.60;100.00;102026.94;5078899;28;20437;-73
2021/08/24 03:29:58;;;;;;;2.30;0.80;;;;;;;13.59;100.00;102031.56;5075274;28;20852;-72
2021/08/24 03:32:25;;;;;;;2.40;1.13;;;;;;;13.57;100.00;102031.03;5074819;28;20461;-72
2021/08/24 03:34:52;;;;;;;2.60;1.07;;;;;;;13.57;100.00;102030.22;5075068;28;20461;-72
2021/08/24 03:37:18;;;;;;;1.43;0.97;;;;;;;13.55;100.00;102040.59;5074244;28;20484;-72
2021/08/24 03:39:45;;;;;;;0.80;0.60;;;;;;;13.55;100.00;102037.88;5075061;28;20455;-72
2021/08/24 03:42:13;;;;;;;1.03;0.77;;;;;;;13.52;100.00;102039.22;5074929;28;20841;-72
2021/08/24 03:44:40;;;;;;;0.97;0.50;;;;;;;13.51;100.00;102043.06;5074586;28;20469;-72
2021/08/24 03:47:06;;;;;;;0.70;0.50;;;;;;;13.49;100.00;102042.50;5074056;28;20495;-72
2021/08/24 03:49:33;;;;;;;0.70;0.50;;;;;;;13.59;100.00;102049.78;5074771;28;20445;-72
2021/08/24 03:51:59;;;;;;;2.10;1.10;;;;;;;13.54;100.00;102050.63;5074616;28;20500;-72
2021/08/24 03:54:25;;;;;;;1.37;0.90;;;;;;;13.59;100.00;102047.06;5074609;28;20464;-72
2021/08/24 03:56:52;;;;;;;1.07;0.97;;;;;;;13.55;100.00;102046.03;5073927;28;20437;-72
2021/08/24 03:59:20;;;;;;;0.60;0.50;;;;;;;13.55;100.00;102051.47;5074499;28;20448;-72
2021/08/24 04:01:46;;;;;;;3.10;1.20;;;;;;;13.56;100.00;102056.63;5074559;28;20453;-71
2021/08/24 04:04:13;;;;;;;1.47;0.60;;;;;;;13.54;100.00;102053.38;5074477;28;20469;-72
2021/08/24 04:06:39;;;;;;;1.57;0.83;;;;;;;13.47;100.00;102049.34;5073924;28;20444;-72
2021/08/24 04:09:06;;;;;;;3.90;1.50;;;;;;;13.49;100.00;102056.13;5074181;28;20463;-72
2021/08/24 04:11:32;;;;;;;1.13;0.93;;;;;;;13.50;100.00;102065.09;5074303;28;20481;-72
2021/08/24 04:13:58;;;;;;;1.03;0.80;;;;;;;13.46;100.00;102064.03;5074290;28;20464;-72
2021/08/24 04:16:26;;;;;;;2.03;1.40;;;;;;;13.41;100.00;102064.09;5073952;28;20453;-72
2021/08/24 04:18:53;;;;;;;0.77;0.70;;;;;;;13.45;100.00;102068.69;5073717;28;20441;-72
2021/08/24 04:21:20;;;;;;;1.90;1.10;;;;;;;13.46;100.00;102069.50;5074215;28;20456;-72
2021/08/24 04:23:48;;;;;;;1.60;0.93;;;;;;;13.50;100.00;102073.28;5074055;28;20469;-71
2021/08/24 04:26:16;;;;;;;1.13;0.87;;;;;;;13.55;100.00;102075.97;5073796;28;20442;-71
2021/08/24 04:28:43;;;;;;;1.37;0.97;;;;;;;13.54;100.00;102079.78;5072982;28;20935;-74
2021/08/24 04:31:13;;;;;;;1.50;1.00;;;;;;;13.49;100.00;102080.63;5073917;28;20485;-73
2021/08/24 04:33:41;;;;;;;1.37;1.10;;;;;;;13.53;100.00;102087.13;5073956;28;20493;-74
2021/08/24 04:36:08;;;;;;;0.97;0.53;;;;;;;13.59;100.00;102085.19;5073792;28;20441;-73
2021/08/24 04:38:35;;;;;;;1.17;1.07;;;;;;;13.63;100.00;102083.50;5073003;28;20442;-73
2021/08/24 04:41:02;;;;;;;1.27;0.90;;;;;;;13.61;100.00;102077.56;5073738;28;20444;-73
2021/08/24 04:43:29;;;;;;;2.50;0.77;;;;;;;13.60;100.00;102086.81;5073712;28;20442;-73
2021/08/24 04:45:55;;;;;;;3.40;0.90;;;;;;;13.55;100.00;102081.44;5073319;28;20457;-73
2021/08/24 04:48:22;;;;;;;2.07;1.10;;;;;;;13.53;100.00;102080.88;5072768;28;20452;-73
2021/08/24 04:50:50;;;;;;;2.30;1.50;;;;;;;13.50;100.00;102095.03;5073524;28;20449;-73
2021/08/24 04:53:16;;;;;;;0.50;0.50;;;;;;;13.50;100.00;102092.31;5073543;28;20441;-73
2021/08/24 04:55:43;;;;;;;0.80;0.80;;;;;;;13.51;100.00;102094.78;5074986;28;20449;-73
2021/08/24 04:58:10;;;;;;;1.03;0.60;;;;;;;13.56;100.00;102091.22;5072695;28;20491;-73
2021/08/24 05:00:37;;;;;;;1.70;1.30;;;;;;;13.61;100.00;102085.72;5073489;28;20448;-73
2021/08/24 05:03:04;;;;;;;1.20;0.90;;;;;;;13.60;100.00;102092.28;5073488;28;20845;-73
2021/08/24 05:05:30;;;;;;;6.03;1.20;;;;;;;13.65;100.00;102100.41;5072954;28;20465;-73
2021/08/24 05:07:58;;;;;;;1.33;0.90;;;;;;;13.62;100.00;102104.47;5072558;28;20438;-72
2021/08/24 05:10:25;;;;;;;0.80;0.70;;;;;;;13.62;100.00;102096.31;5073328;28;20515;-73
2021/08/24 05:12:51;;;;;;;2.30;1.27;;;;;;;13.67;100.00;102098.19;5073268;28;20477;-72
2021/08/24 05:15:18;;;;;;;1.07;0.77;;;;;;;13.74;100.00;102097.88;5073252;28;20464;-72
2021/08/24 05:17:48;;;;;;;1.57;0.80;;;;;;;13.81;100.00;102095.63;5072252;28;20445;-71
2021/08/24 05:20:14;;;;;;;1.57;0.90;;;;;;;13.86;100.00;102096.41;5079489;28;20426;-71
2021/08/24 05:22:42;;;;;;;0.90;0.60;;;;;;;13.83;100.00;102102.41;5073311;28;20454;-71
2021/08/24 05:25:12;;;;;;;1.03;0.70;;;;;;;13.92;100.00;102101.81;5073146;28;20467;-71
2021/08/24 05:27:39;;;;;;;1.10;0.73;;;;;;;13.94;100.00;102105.84;5072188;28;20954;-71
2021/08/24 05:30:08;;;;;;;0.93;0.70;;;;;;;13.99;100.00;102105.84;5073089;28;20503;-73
2021/08/24 05:32:35;;;;;;;5.27;0.83;;;;;;;13.96;100.00;102111.03;5072885;28;20515;-72
2021/08/24 05:35:02;;;;;;;1.40;0.93;;;;;;;13.92;100.00;102109.97;5073030;28;20460;-72
2021/08/24 05:37:28;;;;;;;0.50;0.40;;;;;;;14.03;100.00;102106.06;5072275;28;20449;-70
2021/08/24 05:39:54;;;;;;;0.70;0.67;;;;;;;14.09;100.00;102110.38;5073053;28;20441;-71
2021/08/24 05:42:22;;;;;;;0.80;0.53;;;;;;;14.16;100.00;102112.75;5073234;28;20445;-71
2021/08/24 05:44:49;;;;;;;1.33;0.60;;;;;;;14.19;100.00;102115.72;5072703;28;20489;-71
2021/08/24 05:47:15;;;;;;;2.43;0.97;;;;;;;14.22;100.00;102119.78;5072092;28;20441;-71
2021/08/24 05:49:42;;;;;;;1.20;0.63;;;;;;;14.28;99.44;102119.44;5072666;28;20934;-71
2021/08/24 05:52:09;;;;;;;1.73;0.90;;;;;;;14.32;98.46;102114.22;5072550;28;20490;-70
2021/08/24 05:54:37;;;;;;;0.90;0.60;;;;;;;14.28;97.55;102119.44;5072801;28;20457;-71
2021/08/24 05:57:04;;;;;;;0.80;0.60;;;;;;;14.36;97.59;102127.00;5071643;28;20444;-71
2021/08/24 05:59:32;;;;;;;1.30;0.80;;;;;;;14.37;96.68;102123.16;5072845;28;20453;-71
2021/08/24 06:01:59;;;;;;;0.93;0.57;;;;;;;14.41;97.14;102128.03;5072820;28;20464;-70
2021/08/24 06:04:26;;;;;;;1.57;0.80;;;;;;;14.48;97.04;102128.53;5072693;28;20465;-70
2021/08/24 06:06:52;;;;;;;0.60;0.50;;;;;;;14.58;96.89;102133.88;5071806;28;20896;-70
2021/08/24 06:09:19;;;;;;;0.80;0.70;;;;;;;14.68;97.24;102138.41;5072649;28;20492;-70
2021/08/24 06:11:50;;;;;;;1.20;0.80;;;;;;;14.73;97.06;102127.44;5072640;28;20512;-70
2021/08/24 06:14:18;;;;;;;3.33;0.90;;;;;;;14.81;96.54;102130.34;5073029;28;20566;-70
2021/08/24 06:16:46;;;;;;;1.03;0.90;;;;;;;14.92;96.17;102133.75;5072160;28;20437;-71
2021/08/24 06:19:12;;;;;;;2.30;0.70;;;;;;;14.96;96.01;102129.31;5076085;28;20444;-70
2021/08/24 06:21:40;;;;;;;1.60;0.87;;;;;;;15.04;95.29;102136.06;5076515;28;20441;-71
2021/08/24 06:24:08;;;;;;;1.00;0.60;;;;;;;15.04;94.20;102138.78;5076342;28;20461;-71
2021/08/24 06:26:35;;;;;;;2.90;0.90;;;;;;;15.16;94.67;102139.16;5075761;28;21071;-71
2021/08/24 06:29:01;;;;;;;3.37;1.10;;;;;;;15.25;94.75;102142.06;5076012;28;20451;-71
2021/08/24 06:31:29;;;;;;;1.23;0.77;;;;;;;15.33;94.51;102138.66;5076162;28;20441;-70
2021/08/24 06:33:58;;;;;;;1.80;0.90;;;;;;;15.37;93.46;102139.72;5076158;28;20487;-71
2021/08/24 06:36:25;;;;;;;0.80;0.60;;;;;;;15.39;92.93;102151.94;5075853;28;20449;-71
2021/08/24 06:38:51;;;;;;;3.73;1.20;;;;;;;15.35;91.90;102144.63;5075653;28;20437;-70
2021/08/24 06:41:20;;;;;;;1.73;0.90;;;;;;;15.45;92.52;102151.88;5076144;28;20433;-71
2021/08/24 06:43:46;;;;;;;2.20;0.90;;;;;;;15.53;91.75;102149.28;5075862;28;20518;-70
2021/08/24 06:46:13;;;;;;;2.40;1.00;;;;;;;15.61;92.95;102158.72;5075871;28;20426;-71
2021/08/24 06:48:39;;;;;;;1.10;0.80;;;;;;;15.70;92.30;102156.97;5075291;28;20445;-71
2021/08/24 06:51:08;;;;;;;3.37;0.80;;;;;;;15.77;92.21;102153.88;5075960;28;20488;-71
2021/08/24 06:53:36;;;;;;;0.80;0.57;;;;;;;15.85;91.10;102164.97;5075710;28;20565;-70
2021/08/24 06:56:02;;;;;;;1.27;0.93;;;;;;;16.01;89.83;102153.75;5075709;28;20468;-71
2021/08/24 06:58:29;;;;;;;1.47;0.93;;;;;;;16.05;89.51;102163.00;5074960;28;20502;-70
2021/08/24 07:00:55;;;;;;;2.53;0.83;;;;;;;16.12;89.06;102166.16;5075342;28;20840;-71
2021/08/24 07:03:22;;;;;;;1.07;0.60;;;;;;;16.17;88.71;102162.53;5075711;28;20444;-70
2021/08/24 07:05:50;;;;;;;2.43;0.90;;;;;;;16.23;88.34;102164.84;5075433;28;20934;-72
2021/08/24 07:08:18;;;;;;;4.70;1.23;;;;;;;16.33;88.05;102164.66;5074810;28;20467;-72
2021/08/24 07:10:47;;;;;;;1.03;0.70;;;;;;;16.35;88.71;102167.94;5075488;28;20441;-72
2021/08/24 07:13:15;;;;;;;2.73;0.93;;;;;;;16.41;87.75;102168.63;5075531;28;20477;-73
2021/08/24 07:15:41;;;;;;;2.10;0.77;;;;;;;16.44;85.83;102167.22;5082234;28;20822;-72
2021/08/24 07:18:08;;;;;;;1.63;0.87;;;;;;;16.48;86.40;102168.25;5074302;28;20823;-73
2021/08/24 07:20:34;;;;;;;2.90;0.97;;;;;;;16.56;86.26;102165.63;5075178;28;20441;-72
2021/08/24 07:23:01;;;;;;;2.27;0.90;;;;;;;16.59;84.98;102167.75;5075343;28;20510;-72
2021/08/24 07:25:31;;;;;;;2.60;1.20;;;;;;;16.68;85.10;102167.84;5075323;28;20485;-71
2021/08/24 07:27:58;;;;;;;1.60;0.73;;;;;;;16.75;84.68;102175.72;5073739;28;20961;-71
2021/08/24 07:30:24;;;;;;;1.17;0.70;;;;;;;16.84;85.89;102174.69;5075263;28;20464;-71
2021/08/24 07:32:51;;;;;;;2.30;0.77;;;;;;;16.87;83.68;102176.03;5075421;28;20481;-71
2021/08/24 07:35:19;;;;;;;1.57;0.70;;;;;;;16.90;82.40;102181.66;5074991;28;20468;-71
2021/08/24 07:37:45;;;;;;;1.07;0.60;;;;;;;17.00;82.79;102185.31;5074782;28;20438;-71
2021/08/24 07:40:15;;;;;;;1.37;0.83;;;;;;;17.01;81.11;102184.22;5074982;28;20445;-72
2021/08/24 07:42:45;;;;;;;0.67;0.50;;;;;;;17.11;81.31;102184.00;5075051;28;20481;-71
2021/08/24 07:45:12;;;;;;;1.87;0.73;;;;;;;17.16;82.58;102183.88;5074570;28;20924;-71
2021/08/24 07:47:38;;;;;;;1.47;0.93;;;;;;;17.14;80.80;102181.47;5074102;28;20462;-71
2021/08/24 07:50:06;;;;;;;1.07;0.90;;;;;;;17.11;80.09;102189.47;5075247;28;20437;-72
2021/08/24 07:52:32;;;;;;;1.43;0.80;;;;;;;17.10;80.37;102183.19;5074847;28;20534;-71
2021/08/24 07:54:59;;;;;;;1.57;0.77;;;;;;;17.10;79.29;102180.47;5074684;28;20477;-71
2021/08/24 07:57:25;;;;;;;6.40;0.70;;;;;;;17.16;79.97;102197.56;5074078;28;20449;-71
2021/08/24 07:59:53;;;;;;;3.70;0.63;;;;;;;17.20;78.70;102193.13;5074652;28;20433;-72
2021/08/24 08:02:20;;;;;;;1.17;0.80;;;;;;;17.22;76.90;102187.31;5073798;28;20446;-73
2021/08/24 08:04:47;;;;;;;2.00;0.93;;;;;;;17.26;78.71;102188.34;5074481;28;20457;-70
2021/08/24 08:07:14;;;;;;;3.43;1.20;;;;;;;17.37;75.93;102192.50;5074165;28;20441;-73
2021/08/24 08:09:41;;;;;;;2.57;0.90;;;;;;;17.51;76.10;102201.47;5074350;28;20453;-73
2021/08/24 08:12:08;;;;;;;1.63;1.37;;;;;;;17.61;75.99;102193.00;5074322;28;20481;-72
2021/08/24 08:14:35;;;;;;;0.90;0.60;;;;;;;17.75;76.12;102193.03;5074376;28;20468;-72
2021/08/24 08:17:03;;;;;;;1.03;0.70;;;;;;;17.79;77.30;102196.75;5073451;28;20433;-72
2021/08/24 08:19:30;;;;;;;1.53;0.80;;;;;;;17.93;76.81;102198.63;5073961;28;20437;-72
2021/08/24 08:21:56;;;;;;;1.03;0.67;;;;;;;18.01;76.85;102201.44;5074284;28;20430;-72
2021/08/24 08:24:23;;;;;;;1.90;1.60;;;;;;;18.07;76.50;102185.69;5074496;28;20487;-73
2021/08/24 08:26:50;;;;;;;0.80;0.50;;;;;;;18.15;75.87;102193.16;5073739;28;20437;-73
2021/08/24 08:29:16;;;;;;;1.23;0.90;;;;;;;18.20;72.84;102206.75;5074458;28;20444;-73
2021/08/24 08:31:46;;;;;;;3.90;0.77;;;;;;;18.25;72.76;102203.06;5074149;28;20449;-72
2021/08/24 08:34:15;;;;;;;5.83;1.00;;;;;;;18.29;74.33;102204.84;5074450;28;20839;-72
2021/08/24 08:36:41;;;;;;;4.00;0.70;;;;;;;18.39;73.77;102210.06;5074013;28;20451;-73
2021/08/24 08:39:08;;;;;;;2.93;0.90;;;;;;;18.47;73.88;102214.00;5073758;28;20452;-73
2021/08/24 08:41:42;;;;;;;1.27;0.80;;;;;;;18.49;72.47;102213.69;5072970;28;20449;-73
2021/08/24 08:44:23;;;;;;;1.87;1.20;;;;;;;18.48;69.92;102206.56;5073442;28;20469;-73
2021/08/24 08:46:58;;;;;;;1.33;0.60;;;;;;;18.62;71.19;102210.03;5073129;28;20445;-73
2021/08/24 08:49:33;;;;;;;1.97;0.90;;;;;;;18.69;71.51;102206.84;5074522;28;20429;-73
2021/08/24 08:52:13;;;;;;;2.73;0.77;;;;;;;18.69;69.36;102221.41;5072586;28;20429;-72
2021/08/24 08:54:57;;;;;;;0.70;0.50;;;;;;;18.62;67.65;102221.81;5073586;28;20472;-73
2021/08/24 08:57:29;;;;;;;0.90;0.70;;;;;;;18.70;67.79;102219.47;5072826;28;20429;-72
2021/08/24 09:00:03;;;;;;;0.80;0.73;;;;;;;18.73;68.33;102219.66;5073644;28;20471;-72
2021/08/24 09:02:40;;;;;;;1.20;0.60;;;;;;;18.87;70.14;102214.06;5073659;28;20426;-72
2021/08/24 09:05:10;;;;;;;1.33;0.80;;;;;;;18.97;69.21;102223.94;5073243;28;20460;-73
2021/08/24 09:07:41;;;;;;;1.83;0.80;;;;;;;19.01;67.11;102238.66;5071947;28;20503;-73
2021/08/24 09:10:12;;;;;;;1.43;1.17;;;;;;;19.00;65.97;102235.09;5073459;28;20425;-72
2021/08/24 09:12:39;;;;;;;2.30;1.37;;;;;;;19.06;66.81;102231.06;5080143;28;20470;-73
2021/08/24 09:15:13;;;;;;;2.30;0.70;;;;;;;19.09;69.30;102240.63;5075079;28;20473;-72
2021/08/24 09:17:42;;;;;;;3.20;1.00;;;;;;;19.16;67.37;102241.75;5072895;28;20500;-69
2021/08/24 09:20:18;;;;;;;1.03;0.80;;;;;;;19.15;67.14;102242.09;5073901;28;20465;-69
2021/08/24 09:22:45;;;;;;;1.60;1.27;;;;;;;19.34;68.50;102236.31;5073863;28;20441;-69
2021/08/24 09:25:15;;;;;;;1.10;0.87;;;;;;;19.49;67.44;102248.81;5073430;28;20464;-71
2021/08/24 09:27:51;;;;;;;1.10;0.80;;;;;;;19.63;67.83;102241.25;5072385;28;20441;-71
2021/08/24 09:30:18;;;;;;;2.67;0.70;;;;;;;19.65;67.32;102244.47;5073833;28;20918;-71
2021/08/24 09:32:45;;;;;;;3.20;0.90;;;;;;;19.72;66.32;102244.81;5073125;28;20473;-72
2021/08/24 09:35:27;;;;;;;1.57;0.97;;;;;;;19.68;65.16;102245.78;5073300;28;20461;-72
2021/08/24 09:37:54;;;;;;;2.40;0.93;;;;;;;19.79;67.00;102250.66;5073066;28;20453;-73
2021/08/24 09:40:36;;;;;;;2.27;0.97;;;;;;;19.87;66.53;102238.03;5073608;28;20445;-73
2021/08/24 09:43:20;;;;;;;1.80;0.93;;;;;;;19.96;66.92;102246.28;5072918;28;20895;-73
2021/08/24 09:45:54;;;;;;;4.20;1.00;;;;;;;20.16;65.65;102240.94;5072764;28;20457;-73
2021/08/24 09:48:20;;;;;;;1.93;0.70;;;;;;;20.21;63.55;102245.44;5072585;28;20823;-72
2021/08/24 09:50:48;;;;;;;4.07;1.10;;;;;;;20.35;63.12;102243.31;5073048;28;20501;-73
2021/08/24 09:53:29;;;;;;;1.43;0.67;;;;;;;20.54;65.19;102236.66;5077400;28;20484;-72
2021/08/24 09:55:55;;;;;;;2.53;0.93;;;;;;;20.65;61.68;102232.44;5077606;28;20421;-72
2021/08/24 09:58:30;;;;;;;0.80;0.70;;;;;;;20.51;59.46;102237.34;5076264;28;20445;-72
2021/08/24 10:00:58;;;;;;;1.63;0.83;;;;;;;20.59;60.76;102233.75;5077273;28;20433;-73
2021/08/24 10:03:29;;;;;;;3.00;0.90;;;;;;;20.54;60.51;102248.50;5077595;28;20445;-73
2021/08/24 10:06:06;;;;;;;4.50;1.10;;;;;;;20.49;62.26;102251.41;5077671;28;20432;-73
2021/08/24 10:08:35;;;;;;;3.87;1.27;;;;;;;20.44;64.72;102248.00;5076510;28;20428;-73
2021/08/24 10:11:13;;;;;;;5.87;1.20;;;;;;;20.31;64.20;102242.34;5076890;28;20878;-72
2021/08/24 10:13:42;;;;;;;1.93;1.03;;;;;;;20.19;63.17;102244.16;5076739;28;20489;-72
2021/08/24 10:16:12;;;;;;;2.87;1.00;;;;;;;20.12;60.21;102247.41;5076874;28;20536;-71
2021/08/24 10:18:40;;;;;;;1.40;0.90;;;;;;;20.16;63.89;102242.88;5076126;28;20448;-70
2021/08/24 10:21:13;;;;;;;9.83;1.20;;;;;;;20.19;65.58;102244.97;5076238;28;20441;-71
2021/08/24 10:23:41;;;;;;;6.53;1.20;;;;;;;20.24;64.25;102241.25;5076113;28;20492;-73
2021/08/24 10:26:11;;;;;;;1.23;0.87;;;;;;;20.37;63.65;102235.56;5075884;28;20464;-72
2021/08/24 10:28:40;;;;;;;3.67;1.30;;;;;;;20.58;62.93;102248.63;5075007;28;20558;-72
2021/08/24 10:31:23;;;;;;;2.57;1.03;;;;;;;20.53;57.20;102248.81;5076170;28;20445;-70
2021/08/24 10:33:55;;;;;;;2.43;1.27;;;;;;;20.70;58.89;102243.25;5075911;28;20966;-71
2021/08/24 10:36:30;;;;;;;1.70;0.93;;;;;;;20.76;60.16;102238.38;5076441;28;20422;-72
2021/08/24 10:38:58;;;;;;;1.50;0.90;;;;;;;20.75;59.04;102243.06;5076946;28;20436;-71
2021/08/24 10:41:32;;;;;;;2.83;0.90;;;;;;;20.56;55.96;102239.91;5075151;28;20430;-71
2021/08/24 10:44:03;;;;;;;4.30;1.27;;;;;;;20.64;56.27;102233.56;5075778;28;20479;-72
2021/08/24 10:46:30;;;;;;;1.37;0.90;;;;;;;20.83;58.31;102239.47;5074931;28;20982;-72
2021/08/24 10:48:58;;;;;;;1.80;0.90;;;;;;;20.95;56.45;102233.28;5074968;28;20452;-72
2021/08/24 10:51:37;;;;;;;1.33;0.80;;;;;;;21.19;58.14;102229.09;5076129;28;20467;-73
2021/08/24 10:54:17;;;;;;;1.97;0.83;;;;;;;21.19;54.29;102235.41;5075557;28;20845;-73
2021/08/24 10:56:51;;;;;;;1.90;0.93;;;;;;;21.13;55.42;102245.03;5075199;28;20417;-72
2021/08/24 10:59:30;;;;;;;4.57;0.90;;;;;;;21.02;55.28;102252.03;5075485;28;20500;-72
2021/08/24 11:02:04;;;;;;;0.83;0.60;;;;;;;21.02;58.11;102243.78;5075496;28;20501;-73
2021/08/24 11:04:56;;;;;;;1.17;0.60;;;;;;;21.19;55.64;102229.91;5074782;28;20452;-72
2021/08/24 11:07:36;;;;;;;5.83;0.90;;;;;;;21.51;55.91;102227.63;5075437;28;20421;-72
2021/08/24 11:10:13;;;;;;;1.73;1.33;;;;;;;21.71;55.65;102229.59;5081672;28;20425;-72
2021/08/24 11:12:54;;;;;;;2.67;1.13;;;;;;;21.85;53.76;102229.31;5075130;28;20522;-72
2021/08/24 11:15:36;;;;;;;1.30;0.80;;;;;;;22.22;55.16;102224.75;5075135;28;20461;-74
2021/08/24 11:18:10;;;;;;;1.20;0.70;;;;;;;22.46;50.56;102226.00;5074499;28;20436;-74
2021/08/24 11:20:44;;;;;;;2.93;1.17;;;;;;;22.95;49.85;102226.09;5074924;28;20422;-75
2021/08/24 11:23:24;;;;;;;2.57;1.20;;;;;;;23.36;46.57;102236.06;5074625;28;20899;-75
2021/08/24 11:25:55;;;;;;;4.00;1.20;;;;;;;23.79;46.10;102229.88;5074796;28;20440;-74
2021/08/24 11:28:34;;;;;;;2.30;1.13;;;;;;;23.42;47.16;102232.72;5073926;28;20555;-74
2021/08/24 11:31:09;;;;;;;4.00;1.33;;;;;;;23.51;48.38;102237.31;5075008;28;20425;-74
2021/08/24 11:33:40;;;;;;;2.20;1.07;;;;;;;24.17;44.84;102236.88;5074269;28;20980;-75